Terminal Aerodrome Forecast
Issued by NWS Raleigh/Durham, NC

Home | Current Version | Previous Version | Text Only | Print | Product List | Glossary On
Versions: 1 2 3 4 5 6 7 8 9 10 11 12 13
000
FTUS42 KRAH 230537
TAFRDU
TAF
KRDU 230537Z 2306/2406 11010KT P6SM SCT080 OVC150
     FM231200 08011KT P6SM OVC025
     FM231600 11015KT P6SM OVC050
      TEMPO 2318/2321 5SM -RA OVC025
     FM232100 11015G25KT 4SM -RA BR SCT012 OVC025
     FM232300 10015G25KT 1 1/2SM -RA BR OVC007
     FM240300 09015G28KT 1 1/2SM -RA BR OVC004=

USA.gov is the U.S. government's official web portal to all federal, state and local government web resources and services.